sensor_id;sensor_type;location;lat;lon;timestamp;P1;durP1;ratioP1;P2;durP2;ratioP2
8628;SDS011;4352;49.404;11.092;2023-01-09T00:01:30;17.13;;;12.00;;
8628;SDS011;4352;49.404;11.092;2023-01-09T00:03:57;17.97;;;12.70;;
8628;SDS011;4352;49.404;11.092;2023-01-09T00:06:26;19.03;;;12.67;;
8628;SDS011;4352;49.404;11.092;2023-01-09T00:08:53;18.00;;;13.10;;
8628;SDS011;4352;49.404;11.092;2023-01-09T00:11:20;17.83;;;11.93;;
8628;SDS011;4352;49.404;11.092;2023-01-09T00:13:47;19.77;;;12.87;;
8628;SDS011;4352;49.404;11.092;2023-01-09T00:16:14;21.33;;;13.20;;
8628;SDS011;4352;49.404;11.092;2023-01-09T00:18:42;19.30;;;12.97;;
8628;SDS011;4352;49.404;11.092;2023-01-09T00:21:09;19.47;;;12.80;;
8628;SDS011;4352;49.404;11.092;2023-01-09T00:23:38;21.43;;;12.90;;
8628;SDS011;4352;49.404;11.092;2023-01-09T00:26:06;21.43;;;13.33;;
8628;SDS011;4352;49.404;11.092;2023-01-09T00:28:34;19.13;;;13.40;;
8628;SDS011;4352;49.404;11.092;2023-01-09T00:31:01;20.43;;;13.30;;
8628;SDS011;4352;49.404;11.092;2023-01-09T00:33:29;18.90;;;13.17;;
8628;SDS011;4352;49.404;11.092;2023-01-09T00:35:57;21.47;;;14.40;;
8628;SDS011;4352;49.404;11.092;2023-01-09T00:38:24;21.77;;;13.73;;
8628;SDS011;4352;49.404;11.092;2023-01-09T00:40:53;24.83;;;15.20;;
8628;SDS011;4352;49.404;11.092;2023-01-09T00:43:20;20.83;;;13.13;;
8628;SDS011;4352;49.404;11.092;2023-01-09T00:45:48;23.43;;;14.80;;
8628;SDS011;4352;49.404;11.092;2023-01-09T00:48:15;24.70;;;14.27;;
8628;SDS011;4352;49.404;11.092;2023-01-09T00:50:49;25.17;;;15.13;;
8628;SDS011;4352;49.404;11.092;2023-01-09T00:53:16;22.23;;;13.67;;
8628;SDS011;4352;49.404;11.092;2023-01-09T00:55:44;23.80;;;14.60;;
8628;SDS011;4352;49.404;11.092;2023-01-09T00:58:12;24.80;;;15.37;;
8628;SDS011;4352;49.404;11.092;2023-01-09T01:00:40;23.10;;;14.73;;
8628;SDS011;4352;49.404;11.092;2023-01-09T01:03:07;22.73;;;14.97;;
8628;SDS011;4352;49.404;11.092;2023-01-09T01:05:34;21.90;;;14.03;;
8628;SDS011;4352;49.404;11.092;2023-01-09T01:08:19;22.37;;;13.97;;
8628;SDS011;4352;49.404;11.092;2023-01-09T01:10:47;27.33;;;15.80;;
8628;SDS011;4352;49.404;11.092;2023-01-09T01:13:15;22.40;;;14.43;;
8628;SDS011;4352;49.404;11.092;2023-01-09T01:15:45;23.50;;;14.97;;
8628;SDS011;4352;49.404;11.092;2023-01-09T01:18:12;26.47;;;15.53;;
8628;SDS011;4352;49.404;11.092;2023-01-09T01:20:40;22.30;;;14.43;;
8628;SDS011;4352;49.404;11.092;2023-01-09T01:23:07;24.50;;;15.30;;
8628;SDS011;4352;49.404;11.092;2023-01-09T01:25:35;26.07;;;15.10;;
8628;SDS011;4352;49.404;11.092;2023-01-09T01:28:02;24.73;;;15.57;;
8628;SDS011;4352;49.404;11.092;2023-01-09T01:30:30;23.73;;;15.17;;
8628;SDS011;4352;49.404;11.092;2023-01-09T01:32:57;25.33;;;14.67;;
8628;SDS011;4352;49.404;11.092;2023-01-09T01:35:25;22.93;;;14.63;;
8628;SDS011;4352;49.404;11.092;2023-01-09T01:37:52;25.20;;;15.07;;
8628;SDS011;4352;49.404;11.092;2023-01-09T01:40:19;24.47;;;14.53;;
8628;SDS011;4352;49.404;11.092;2023-01-09T01:42:46;25.70;;;15.37;;
8628;SDS011;4352;49.404;11.092;2023-01-09T01:45:14;27.70;;;14.70;;
8628;SDS011;4352;49.404;11.092;2023-01-09T01:47:46;28.03;;;17.17;;
8628;SDS011;4352;49.404;11.092;2023-01-09T01:50:17;27.03;;;15.70;;
8628;SDS011;4352;49.404;11.092;2023-01-09T01:52:47;23.03;;;15.43;;
8628;SDS011;4352;49.404;11.092;2023-01-09T01:55:16;25.70;;;15.70;;
8628;SDS011;4352;49.404;11.092;2023-01-09T01:57:45;28.90;;;15.90;;
8628;SDS011;4352;49.404;11.092;2023-01-09T02:00:14;27.47;;;16.13;;
8628;SDS011;4352;49.404;11.092;2023-01-09T02:02:41;25.67;;;16.07;;
8628;SDS011;4352;49.404;11.092;2023-01-09T02:05:11;28.83;;;16.57;;
8628;SDS011;4352;49.404;11.092;2023-01-09T02:07:38;28.17;;;16.53;;
8628;SDS011;4352;49.404;11.092;2023-01-09T02:10:05;27.03;;;16.00;;
8628;SDS011;4352;49.404;11.092;2023-01-09T02:12:33;25.83;;;15.63;;
8628;SDS011;4352;49.404;11.092;2023-01-09T02:15:02;26.43;;;15.70;;
8628;SDS011;4352;49.404;11.092;2023-01-09T02:17:40;25.50;;;17.03;;
8628;SDS011;4352;49.404;11.092;2023-01-09T02:20:30;24.37;;;15.23;;
8628;SDS011;4352;49.404;11.092;2023-01-09T02:23:00;24.80;;;15.70;;
8628;SDS011;4352;49.404;11.092;2023-01-09T02:25:42;23.40;;;14.57;;
8628;SDS011;4352;49.404;11.092;2023-01-09T02:28:27;26.10;;;15.20;;
8628;SDS011;4352;49.404;11.092;2023-01-09T02:31:01;23.03;;;14.77;;
8628;SDS011;4352;49.404;11.092;2023-01-09T02:33:37;22.73;;;14.53;;
8628;SDS011;4352;49.404;11.092;2023-01-09T02:36:16;22.90;;;14.37;;
8628;SDS011;4352;49.404;11.092;2023-01-09T02:38:51;23.20;;;14.63;;
8628;SDS011;4352;49.404;11.092;2023-01-09T02:41:20;24.47;;;14.40;;
8628;SDS011;4352;49.404;11.092;2023-01-09T02:43:59;23.63;;;14.17;;
8628;SDS011;4352;49.404;11.092;2023-01-09T02:46:28;22.37;;;14.33;;
8628;SDS011;4352;49.404;11.092;2023-01-09T02:48:55;22.57;;;14.37;;
8628;SDS011;4352;49.404;11.092;2023-01-09T02:51:24;25.43;;;14.70;;
8628;SDS011;4352;49.404;11.092;2023-01-09T02:54:00;21.20;;;13.47;;
8628;SDS011;4352;49.404;11.092;2023-01-09T02:56:34;21.07;;;13.20;;
8628;SDS011;4352;49.404;11.092;2023-01-09T02:59:09;18.87;;;12.20;;
8628;SDS011;4352;49.404;11.092;2023-01-09T03:01:42;23.43;;;13.30;;
8628;SDS011;4352;49.404;11.092;2023-01-09T03:04:15;20.23;;;12.97;;
8628;SDS011;4352;49.404;11.092;2023-01-09T03:06:46;22.70;;;13.53;;
8628;SDS011;4352;49.404;11.092;2023-01-09T03:09:14;22.10;;;13.70;;
8628;SDS011;4352;49.404;11.092;2023-01-09T03:11:45;22.67;;;13.50;;
8628;SDS011;4352;49.404;11.092;2023-01-09T03:14:15;21.00;;;12.90;;
8628;SDS011;4352;49.404;11.092;2023-01-09T03:16:45;25.17;;;13.63;;
8628;SDS011;4352;49.404;11.092;2023-01-09T03:19:15;22.73;;;13.93;;
8628;SDS011;4352;49.404;11.092;2023-01-09T03:21:43;20.10;;;13.47;;
8628;SDS011;4352;49.404;11.092;2023-01-09T03:24:11;22.43;;;13.87;;
8628;SDS011;4352;49.404;11.092;2023-01-09T03:26:38;21.60;;;14.07;;
8628;SDS011;4352;49.404;11.092;2023-01-09T03:29:05;23.30;;;14.33;;
8628;SDS011;4352;49.404;11.092;2023-01-09T03:31:32;22.77;;;14.00;;
8628;SDS011;4352;49.404;11.092;2023-01-09T03:34:00;22.23;;;14.07;;
8628;SDS011;4352;49.404;11.092;2023-01-09T03:36:27;23.37;;;14.27;;
8628;SDS011;4352;49.404;11.092;2023-01-09T03:38:55;22.30;;;14.17;;
8628;SDS011;4352;49.404;11.092;2023-01-09T03:41:22;23.63;;;14.33;;
8628;SDS011;4352;49.404;11.092;2023-01-09T03:43:49;23.70;;;14.10;;
8628;SDS011;4352;49.404;11.092;2023-01-09T03:46:16;27.80;;;15.97;;
8628;SDS011;4352;49.404;11.092;2023-01-09T03:48:43;22.13;;;14.00;;
8628;SDS011;4352;49.404;11.092;2023-01-09T03:51:11;24.60;;;15.10;;
8628;SDS011;4352;49.404;11.092;2023-01-09T03:53:38;27.50;;;15.97;;
8628;SDS011;4352;49.404;11.092;2023-01-09T03:56:06;29.13;;;15.20;;
8628;SDS011;4352;49.404;11.092;2023-01-09T03:58:33;25.67;;;15.83;;
8628;SDS011;4352;49.404;11.092;2023-01-09T04:01:00;24.53;;;15.80;;
8628;SDS011;4352;49.404;11.092;2023-01-09T04:03:28;26.37;;;15.00;;
8628;SDS011;4352;49.404;11.092;2023-01-09T04:05:55;28.53;;;15.63;;
8628;SDS011;4352;49.404;11.092;2023-01-09T04:08:23;26.03;;;14.60;;
8628;SDS011;4352;49.404;11.092;2023-01-09T04:10:50;25.63;;;15.73;;
8628;SDS011;4352;49.404;11.092;2023-01-09T04:13:17;25.50;;;15.90;;
8628;SDS011;4352;49.404;11.092;2023-01-09T04:15:44;23.53;;;15.30;;
8628;SDS011;4352;49.404;11.092;2023-01-09T04:18:12;25.57;;;15.50;;
8628;SDS011;4352;49.404;11.092;2023-01-09T04:20:39;26.10;;;15.47;;
8628;SDS011;4352;49.404;11.092;2023-01-09T04:23:06;25.77;;;16.03;;
8628;SDS011;4352;49.404;11.092;2023-01-09T04:25:35;27.53;;;15.57;;
8628;SDS011;4352;49.404;11.092;2023-01-09T04:28:02;21.70;;;14.70;;
8628;SDS011;4352;49.404;11.092;2023-01-09T04:30:29;22.80;;;15.23;;
8628;SDS011;4352;49.404;11.092;2023-01-09T04:32:56;24.53;;;15.57;;
8628;SDS011;4352;49.404;11.092;2023-01-09T04:35:23;22.43;;;14.77;;
8628;SDS011;4352;49.404;11.092;2023-01-09T04:37:50;24.73;;;15.80;;
8628;SDS011;4352;49.404;11.092;2023-01-09T04:40:17;25.87;;;14.93;;
8628;SDS011;4352;49.404;11.092;2023-01-09T04:42:46;21.00;;;14.07;;
8628;SDS011;4352;49.404;11.092;2023-01-09T04:45:13;22.40;;;13.43;;
8628;SDS011;4352;49.404;11.092;2023-01-09T04:47:41;21.00;;;14.40;;
8628;SDS011;4352;49.404;11.092;2023-01-09T04:50:08;22.87;;;14.73;;
8628;SDS011;4352;49.404;11.092;2023-01-09T04:52:36;22.87;;;15.13;;
8628;SDS011;4352;49.404;11.092;2023-01-09T04:55:03;21.17;;;13.97;;
8628;SDS011;4352;49.404;11.092;2023-01-09T04:57:31;23.23;;;14.87;;
8628;SDS011;4352;49.404;11.092;2023-01-09T04:59:59;22.60;;;14.33;;
8628;SDS011;4352;49.404;11.092;2023-01-09T05:02:27;21.37;;;14.10;;
8628;SDS011;4352;49.404;11.092;2023-01-09T05:04:54;25.33;;;14.40;;
8628;SDS011;4352;49.404;11.092;2023-01-09T05:07:21;23.80;;;15.70;;
8628;SDS011;4352;49.404;11.092;2023-01-09T05:09:48;23.30;;;14.90;;
8628;SDS011;4352;49.404;11.092;2023-01-09T05:12:15;23.53;;;15.73;;
8628;SDS011;4352;49.404;11.092;2023-01-09T05:14:42;22.37;;;14.93;;
8628;SDS011;4352;49.404;11.092;2023-01-09T05:17:10;24.10;;;16.27;;
8628;SDS011;4352;49.404;11.092;2023-01-09T05:19:37;24.90;;;15.30;;
8628;SDS011;4352;49.404;11.092;2023-01-09T05:22:04;23.27;;;16.20;;
8628;SDS011;4352;49.404;11.092;2023-01-09T05:24:31;28.37;;;17.23;;
8628;SDS011;4352;49.404;11.092;2023-01-09T05:26:58;26.87;;;16.83;;
8628;SDS011;4352;49.404;11.092;2023-01-09T05:29:26;25.67;;;16.77;;
8628;SDS011;4352;49.404;11.092;2023-01-09T05:31:53;24.63;;;16.30;;
8628;SDS011;4352;49.404;11.092;2023-01-09T05:34:22;23.87;;;16.30;;
8628;SDS011;4352;49.404;11.092;2023-01-09T05:36:49;24.73;;;15.87;;
8628;SDS011;4352;49.404;11.092;2023-01-09T05:39:16;26.87;;;15.90;;
8628;SDS011;4352;49.404;11.092;2023-01-09T05:41:43;25.70;;;16.50;;
8628;SDS011;4352;49.404;11.092;2023-01-09T05:44:10;23.20;;;15.67;;
8628;SDS011;4352;49.404;11.092;2023-01-09T05:46:37;26.33;;;16.47;;
8628;SDS011;4352;49.404;11.092;2023-01-09T05:49:04;22.70;;;15.53;;
8628;SDS011;4352;49.404;11.092;2023-01-09T05:51:33;25.00;;;16.00;;
8628;SDS011;4352;49.404;11.092;2023-01-09T05:54:00;22.97;;;13.57;;
8628;SDS011;4352;49.404;11.092;2023-01-09T05:56:28;21.00;;;14.43;;
8628;SDS011;4352;49.404;11.092;2023-01-09T05:58:55;18.90;;;13.47;;
8628;SDS011;4352;49.404;11.092;2023-01-09T06:01:22;21.03;;;13.93;;
8628;SDS011;4352;49.404;11.092;2023-01-09T06:03:49;20.30;;;13.77;;
8628;SDS011;4352;49.404;11.092;2023-01-09T06:06:16;26.07;;;15.13;;
8628;SDS011;4352;49.404;11.092;2023-01-09T06:08:44;22.47;;;13.17;;
8628;SDS011;4352;49.404;11.092;2023-01-09T06:11:11;16.03;;;12.13;;
8628;SDS011;4352;49.404;11.092;2023-01-09T06:13:38;15.37;;;9.83;;
8628;SDS011;4352;49.404;11.092;2023-01-09T06:16:06;12.53;;;9.00;;
8628;SDS011;4352;49.404;11.092;2023-01-09T06:18:33;8.97;;;5.67;;
8628;SDS011;4352;49.404;11.092;2023-01-09T06:21:00;6.73;;;4.53;;
8628;SDS011;4352;49.404;11.092;2023-01-09T06:23:27;4.40;;;3.40;;
8628;SDS011;4352;49.404;11.092;2023-01-09T06:25:56;3.87;;;2.30;;
8628;SDS011;4352;49.404;11.092;2023-01-09T06:28:23;3.43;;;1.70;;
8628;SDS011;4352;49.404;11.092;2023-01-09T06:30:50;2.17;;;1.70;;
8628;SDS011;4352;49.404;11.092;2023-01-09T06:33:17;1.67;;;1.37;;
8628;SDS011;4352;49.404;11.092;2023-01-09T06:35:44;1.20;;;1.10;;
8628;SDS011;4352;49.404;11.092;2023-01-09T06:38:11;1.33;;;1.20;;
8628;SDS011;4352;49.404;11.092;2023-01-09T06:40:38;1.37;;;1.10;;
8628;SDS011;4352;49.404;11.092;2023-01-09T06:43:07;3.27;;;1.00;;
8628;SDS011;4352;49.404;11.092;2023-01-09T06:45:34;2.30;;;1.23;;
8628;SDS011;4352;49.404;11.092;2023-01-09T06:48:01;1.00;;;0.90;;
8628;SDS011;4352;49.404;11.092;2023-01-09T06:50:28;2.90;;;1.50;;
8628;SDS011;4352;49.404;11.092;2023-01-09T06:52:55;0.70;;;0.70;;
8628;SDS011;4352;49.404;11.092;2023-01-09T06:55:22;1.10;;;1.00;;
8628;SDS011;4352;49.404;11.092;2023-01-09T06:57:50;1.00;;;0.90;;
8628;SDS011;4352;49.404;11.092;2023-01-09T07:00:19;2.40;;;1.10;;
8628;SDS011;4352;49.404;11.092;2023-01-09T07:02:46;2.83;;;1.50;;
8628;SDS011;4352;49.404;11.092;2023-01-09T07:05:13;1.60;;;1.27;;
8628;SDS011;4352;49.404;11.092;2023-01-09T07:07:40;2.37;;;1.40;;
8628;SDS011;4352;49.404;11.092;2023-01-09T07:10:08;4.80;;;1.20;;
8628;SDS011;4352;49.404;11.092;2023-01-09T07:12:35;1.23;;;1.10;;
8628;SDS011;4352;49.404;11.092;2023-01-09T07:15:02;0.83;;;0.83;;
8628;SDS011;4352;49.404;11.092;2023-01-09T07:17:30;2.27;;;1.43;;
8628;SDS011;4352;49.404;11.092;2023-01-09T07:19:58;2.60;;;1.50;;
8628;SDS011;4352;49.404;11.092;2023-01-09T07:22:25;2.90;;;1.67;;
8628;SDS011;4352;49.404;11.092;2023-01-09T07:24:52;1.37;;;1.10;;
8628;SDS011;4352;49.404;11.092;2023-01-09T07:27:19;1.43;;;1.10;;
8628;SDS011;4352;49.404;11.092;2023-01-09T07:29:46;1.93;;;1.40;;
8628;SDS011;4352;49.404;11.092;2023-01-09T07:32:14;1.50;;;1.33;;
8628;SDS011;4352;49.404;11.092;2023-01-09T07:34:42;1.60;;;1.33;;
8628;SDS011;4352;49.404;11.092;2023-01-09T07:37:09;2.07;;;1.33;;
8628;SDS011;4352;49.404;11.092;2023-01-09T07:39:36;1.60;;;1.20;;
8628;SDS011;4352;49.404;11.092;2023-01-09T07:42:03;1.63;;;1.17;;
8628;SDS011;4352;49.404;11.092;2023-01-09T07:44:30;2.10;;;1.33;;
8628;SDS011;4352;49.404;11.092;2023-01-09T07:46:57;2.00;;;1.30;;
8628;SDS011;4352;49.404;11.092;2023-01-09T07:49:24;3.47;;;1.53;;
8628;SDS011;4352;49.404;11.092;2023-01-09T07:51:53;1.87;;;1.63;;
8628;SDS011;4352;49.404;11.092;2023-01-09T07:54:20;2.10;;;1.40;;
8628;SDS011;4352;49.404;11.092;2023-01-09T07:56:47;3.83;;;1.80;;
8628;SDS011;4352;49.404;11.092;2023-01-09T07:59:14;3.90;;;2.03;;
8628;SDS011;4352;49.404;11.092;2023-01-09T08:01:41;1.50;;;1.20;;
8628;SDS011;4352;49.404;11.092;2023-01-09T08:04:08;0.87;;;0.87;;
8628;SDS011;4352;49.404;11.092;2023-01-09T08:06:35;2.13;;;1.30;;
8628;SDS011;4352;49.404;11.092;2023-01-09T08:09:04;5.53;;;1.40;;
8628;SDS011;4352;49.404;11.092;2023-01-09T08:11:31;3.97;;;1.73;;
8628;SDS011;4352;49.404;11.092;2023-01-09T08:13:58;4.47;;;1.30;;
8628;SDS011;4352;49.404;11.092;2023-01-09T08:16:25;2.27;;;1.20;;
8628;SDS011;4352;49.404;11.092;2023-01-09T08:18:52;2.60;;;1.20;;
8628;SDS011;4352;49.404;11.092;2023-01-09T08:21:19;3.00;;;1.23;;
8628;SDS011;4352;49.404;11.092;2023-01-09T08:23:46;1.97;;;1.27;;
8628;SDS011;4352;49.404;11.092;2023-01-09T08:26:15;1.73;;;1.43;;
8628;SDS011;4352;49.404;11.092;2023-01-09T08:28:42;4.23;;;1.50;;
8628;SDS011;4352;49.404;11.092;2023-01-09T08:31:09;7.97;;;1.60;;
8628;SDS011;4352;49.404;11.092;2023-01-09T08:33:36;4.07;;;1.50;;
8628;SDS011;4352;49.404;11.092;2023-01-09T08:36:04;2.70;;;1.37;;
8628;SDS011;4352;49.404;11.092;2023-01-09T08:38:31;2.17;;;1.30;;
8628;SDS011;4352;49.404;11.092;2023-01-09T08:40:58;3.27;;;1.00;;
8628;SDS011;4352;49.404;11.092;2023-01-09T08:43:46;4.83;;;1.53;;
8628;SDS011;4352;49.404;11.092;2023-01-09T08:46:31;7.03;;;2.00;;
8628;SDS011;4352;49.404;11.092;2023-01-09T08:49:15;6.30;;;2.60;;
8628;SDS011;4352;49.404;11.092;2023-01-09T08:51:42;10.13;;;1.70;;
8628;SDS011;4352;49.404;11.092;2023-01-09T08:54:09;9.53;;;1.60;;
8628;SDS011;4352;49.404;11.092;2023-01-09T08:56:37;5.07;;;1.53;;
8628;SDS011;4352;49.404;11.092;2023-01-09T08:59:05;8.10;;;2.17;;
8628;SDS011;4352;49.404;11.092;2023-01-09T09:01:32;6.67;;;2.23;;
8628;SDS011;4352;49.404;11.092;2023-01-09T09:03:59;5.83;;;2.07;;
8628;SDS011;4352;49.404;11.092;2023-01-09T09:06:26;9.13;;;2.37;;
8628;SDS011;4352;49.404;11.092;2023-01-09T09:08:53;8.07;;;2.73;;
8628;SDS011;4352;49.404;11.092;2023-01-09T09:11:21;5.70;;;2.37;;
8628;SDS011;4352;49.404;11.092;2023-01-09T09:13:48;5.97;;;2.07;;
8628;SDS011;4352;49.404;11.092;2023-01-09T09:16:16;5.17;;;1.77;;
8628;SDS011;4352;49.404;11.092;2023-01-09T09:18:43;6.27;;;2.10;;
8628;SDS011;4352;49.404;11.092;2023-01-09T09:21:10;5.97;;;1.90;;
8628;SDS011;4352;49.404;11.092;2023-01-09T09:23:37;10.50;;;2.93;;
8628;SDS011;4352;49.404;11.092;2023-01-09T09:26:04;5.80;;;1.83;;
8628;SDS011;4352;49.404;11.092;2023-01-09T09:28:31;10.17;;;2.00;;
8628;SDS011;4352;49.404;11.092;2023-01-09T09:30:59;4.97;;;1.47;;
8628;SDS011;4352;49.404;11.092;2023-01-09T09:33:27;5.83;;;2.10;;
8628;SDS011;4352;49.404;11.092;2023-01-09T09:35:54;3.87;;;2.23;;
8628;SDS011;4352;49.404;11.092;2023-01-09T09:38:21;6.47;;;1.90;;
8628;SDS011;4352;49.404;11.092;2023-01-09T09:40:57;5.23;;;1.97;;
8628;SDS011;4352;49.404;11.092;2023-01-09T09:43:51;7.20;;;2.00;;
8628;SDS011;4352;49.404;11.092;2023-01-09T09:46:40;5.57;;;1.50;;
8628;SDS011;4352;49.404;11.092;2023-01-09T09:49:11;3.50;;;1.27;;
8628;SDS011;4352;49.404;11.092;2023-01-09T09:51:47;6.17;;;1.83;;
8628;SDS011;4352;49.404;11.092;2023-01-09T09:54:17;6.70;;;1.80;;
8628;SDS011;4352;49.404;11.092;2023-01-09T09:56:46;12.07;;;1.57;;
8628;SDS011;4352;49.404;11.092;2023-01-09T09:59:16;3.27;;;1.50;;
8628;SDS011;4352;49.404;11.092;2023-01-09T10:01:47;8.10;;;1.37;;
8628;SDS011;4352;49.404;11.092;2023-01-09T10:04:17;5.47;;;1.43;;
8628;SDS011;4352;49.404;11.092;2023-01-09T10:06:46;3.77;;;1.43;;
8628;SDS011;4352;49.404;11.092;2023-01-09T10:09:16;3.90;;;1.47;;
8628;SDS011;4352;49.404;11.092;2023-01-09T10:11:50;3.93;;;1.53;;
8628;SDS011;4352;49.404;11.092;2023-01-09T10:14:18;6.03;;;1.80;;
8628;SDS011;4352;49.404;11.092;2023-01-09T10:16:52;3.33;;;1.60;;
8628;SDS011;4352;49.404;11.092;2023-01-09T10:19:26;8.53;;;1.87;;
8628;SDS011;4352;49.404;11.092;2023-01-09T10:21:58;9.60;;;2.20;;
8628;SDS011;4352;49.404;11.092;2023-01-09T10:24:31;3.77;;;1.80;;
8628;SDS011;4352;49.404;11.092;2023-01-09T10:27:01;9.40;;;1.80;;
8628;SDS011;4352;49.404;11.092;2023-01-09T10:29:41;3.23;;;1.43;;
8628;SDS011;4352;49.404;11.092;2023-01-09T10:32:18;6.63;;;1.33;;
8628;SDS011;4352;49.404;11.092;2023-01-09T10:34:51;7.20;;;1.90;;
8628;SDS011;4352;49.404;11.092;2023-01-09T10:37:22;5.97;;;1.70;;
8628;SDS011;4352;49.404;11.092;2023-01-09T10:39:53;4.57;;;1.30;;
8628;SDS011;4352;49.404;11.092;2023-01-09T10:42:21;3.23;;;1.40;;
8628;SDS011;4352;49.404;11.092;2023-01-09T10:44:53;5.20;;;1.63;;
8628;SDS011;4352;49.404;11.092;2023-01-09T10:47:24;6.37;;;2.20;;
8628;SDS011;4352;49.404;11.092;2023-01-09T10:49:54;5.20;;;1.70;;
8628;SDS011;4352;49.404;11.092;2023-01-09T10:52:24;3.97;;;1.60;;
8628;SDS011;4352;49.404;11.092;2023-01-09T10:54:52;4.27;;;1.53;;
8628;SDS011;4352;49.404;11.092;2023-01-09T10:57:26;5.77;;;1.50;;
8628;SDS011;4352;49.404;11.092;2023-01-09T10:59:58;3.77;;;1.43;;
8628;SDS011;4352;49.404;11.092;2023-01-09T11:02:25;3.00;;;1.40;;
8628;SDS011;4352;49.404;11.092;2023-01-09T11:04:54;6.70;;;1.50;;
8628;SDS011;4352;49.404;11.092;2023-01-09T11:07:22;3.53;;;1.33;;
8628;SDS011;4352;49.404;11.092;2023-01-09T11:09:53;10.93;;;2.40;;
8628;SDS011;4352;49.404;11.092;2023-01-09T11:12:22;6.93;;;2.07;;
8628;SDS011;4352;49.404;11.092;2023-01-09T11:14:50;3.80;;;1.60;;
8628;SDS011;4352;49.404;11.092;2023-01-09T11:17:18;6.97;;;1.90;;
8628;SDS011;4352;49.404;11.092;2023-01-09T11:20:00;2.63;;;1.70;;
8628;SDS011;4352;49.404;11.092;2023-01-09T11:22:28;4.87;;;2.37;;
8628;SDS011;4352;49.404;11.092;2023-01-09T11:24:58;3.50;;;1.40;;
8628;SDS011;4352;49.404;11.092;2023-01-09T11:27:25;3.30;;;1.67;;
8628;SDS011;4352;49.404;11.092;2023-01-09T11:30:03;3.20;;;1.67;;
8628;SDS011;4352;49.404;11.092;2023-01-09T11:32:30;3.20;;;1.57;;
8628;SDS011;4352;49.404;11.092;2023-01-09T11:35:00;2.93;;;1.27;;
8628;SDS011;4352;49.404;11.092;2023-01-09T11:37:30;9.67;;;3.43;;
8628;SDS011;4352;49.404;11.092;2023-01-09T11:39:57;3.50;;;1.43;;
8628;SDS011;4352;49.404;11.092;2023-01-09T11:42:26;4.57;;;1.70;;
8628;SDS011;4352;49.404;11.092;2023-01-09T11:45:12;5.73;;;1.90;;
8628;SDS011;4352;49.404;11.092;2023-01-09T11:47:40;6.53;;;2.00;;
8628;SDS011;4352;49.404;11.092;2023-01-09T11:50:09;4.60;;;1.63;;
8628;SDS011;4352;49.404;11.092;2023-01-09T11:52:42;7.37;;;3.07;;
8628;SDS011;4352;49.404;11.092;2023-01-09T11:55:09;7.60;;;3.37;;
8628;SDS011;4352;49.404;11.092;2023-01-09T11:57:37;4.07;;;1.40;;
8628;SDS011;4352;49.404;11.092;2023-01-09T12:00:09;7.00;;;1.47;;
8628;SDS011;4352;49.404;11.092;2023-01-09T12:02:49;3.43;;;1.57;;
8628;SDS011;4352;49.404;11.092;2023-01-09T12:05:26;3.13;;;1.20;;
8628;SDS011;4352;49.404;11.092;2023-01-09T12:08:01;4.17;;;1.30;;
8628;SDS011;4352;49.404;11.092;2023-01-09T12:10:35;2.97;;;1.13;;
8628;SDS011;4352;49.404;11.092;2023-01-09T12:13:12;3.93;;;1.40;;
8628;SDS011;4352;49.404;11.092;2023-01-09T12:15:47;3.97;;;2.07;;
8628;SDS011;4352;49.404;11.092;2023-01-09T12:18:18;3.43;;;1.87;;
8628;SDS011;4352;49.404;11.092;2023-01-09T12:20:57;3.63;;;1.53;;
8628;SDS011;4352;49.404;11.092;2023-01-09T12:23:32;2.60;;;1.63;;
8628;SDS011;4352;49.404;11.092;2023-01-09T12:26:04;3.37;;;2.10;;
8628;SDS011;4352;49.404;11.092;2023-01-09T12:28:57;5.70;;;2.13;;
8628;SDS011;4352;49.404;11.092;2023-01-09T12:31:30;8.93;;;2.50;;
8628;SDS011;4352;49.404;11.092;2023-01-09T12:34:02;5.77;;;2.30;;
8628;SDS011;4352;49.404;11.092;2023-01-09T12:36:34;5.80;;;2.00;;
8628;SDS011;4352;49.404;11.092;2023-01-09T12:39:08;8.17;;;1.87;;
8628;SDS011;4352;49.404;11.092;2023-01-09T12:44:44;4.60;;;1.80;;
8628;SDS011;4352;49.404;11.092;2023-01-09T12:47:22;4.17;;;2.00;;
8628;SDS011;4352;49.404;11.092;2023-01-09T12:49:56;3.77;;;2.00;;
8628;SDS011;4352;49.404;11.092;2023-01-09T12:52:30;5.80;;;1.80;;
8628;SDS011;4352;49.404;11.092;2023-01-09T12:55:00;2.57;;;1.50;;
8628;SDS011;4352;49.404;11.092;2023-01-09T12:57:29;9.77;;;1.60;;
8628;SDS011;4352;49.404;11.092;2023-01-09T12:59:57;2.10;;;1.20;;
8628;SDS011;4352;49.404;11.092;2023-01-09T13:02:26;4.00;;;1.37;;
8628;SDS011;4352;49.404;11.092;2023-01-09T13:04:57;3.47;;;1.70;;
8628;SDS011;4352;49.404;11.092;2023-01-09T13:07:25;4.63;;;2.63;;
8628;SDS011;4352;49.404;11.092;2023-01-09T13:09:55;4.83;;;2.03;;
8628;SDS011;4352;49.404;11.092;2023-01-09T13:12:24;2.70;;;1.90;;
8628;SDS011;4352;49.404;11.092;2023-01-09T13:14:52;7.13;;;1.77;;
8628;SDS011;4352;49.404;11.092;2023-01-09T13:17:22;2.23;;;1.10;;
8628;SDS011;4352;49.404;11.092;2023-01-09T13:19:51;2.77;;;1.50;;
8628;SDS011;4352;49.404;11.092;2023-01-09T13:22:18;5.77;;;2.20;;
8628;SDS011;4352;49.404;11.092;2023-01-09T13:24:50;3.27;;;1.50;;
8628;SDS011;4352;49.404;11.092;2023-01-09T13:27:21;2.57;;;0.97;;
8628;SDS011;4352;49.404;11.092;2023-01-09T13:29:49;2.80;;;1.40;;
8628;SDS011;4352;49.404;11.092;2023-01-09T13:32:29;4.53;;;1.93;;
8628;SDS011;4352;49.404;11.092;2023-01-09T13:35:00;2.97;;;1.10;;
8628;SDS011;4352;49.404;11.092;2023-01-09T13:37:28;3.60;;;1.37;;
8628;SDS011;4352;49.404;11.092;2023-01-09T13:39:56;4.23;;;1.47;;
8628;SDS011;4352;49.404;11.092;2023-01-09T13:42:25;5.23;;;2.13;;
8628;SDS011;4352;49.404;11.092;2023-01-09T13:45:08;3.40;;;1.73;;
8628;SDS011;4352;49.404;11.092;2023-01-09T13:47:36;6.07;;;2.87;;
8628;SDS011;4352;49.404;11.092;2023-01-09T13:50:23;7.20;;;2.43;;
8628;SDS011;4352;49.404;11.092;2023-01-09T13:52:51;4.73;;;1.80;;
8628;SDS011;4352;49.404;11.092;2023-01-09T13:55:28;3.13;;;1.70;;
8628;SDS011;4352;49.404;11.092;2023-01-09T14:00:57;5.73;;;2.47;;
8628;SDS011;4352;49.404;11.092;2023-01-09T14:03:26;7.47;;;4.00;;
8628;SDS011;4352;49.404;11.092;2023-01-09T14:08:41;5.07;;;2.20;;
8628;SDS011;4352;49.404;11.092;2023-01-09T14:11:09;3.00;;;1.40;;
8628;SDS011;4352;49.404;11.092;2023-01-09T14:13:44;4.87;;;2.00;;
8628;SDS011;4352;49.404;11.092;2023-01-09T14:16:16;7.80;;;3.27;;
8628;SDS011;4352;49.404;11.092;2023-01-09T14:18:45;2.40;;;1.37;;
8628;SDS011;4352;49.404;11.092;2023-01-09T14:21:13;6.67;;;3.10;;
8628;SDS011;4352;49.404;11.092;2023-01-09T14:23:46;16.13;;;5.60;;
8628;SDS011;4352;49.404;11.092;2023-01-09T14:26:14;9.27;;;4.40;;
8628;SDS011;4352;49.404;11.092;2023-01-09T14:28:43;12.13;;;4.03;;
8628;SDS011;4352;49.404;11.092;2023-01-09T14:31:26;15.33;;;6.17;;
8628;SDS011;4352;49.404;11.092;2023-01-09T14:36:39;12.03;;;5.30;;
8628;SDS011;4352;49.404;11.092;2023-01-09T14:39:07;9.90;;;4.13;;
8628;SDS011;4352;49.404;11.092;2023-01-09T14:41:37;5.10;;;3.17;;
8628;SDS011;4352;49.404;11.092;2023-01-09T14:44:26;12.87;;;5.67;;
8628;SDS011;4352;49.404;11.092;2023-01-09T14:46:57;9.63;;;4.60;;
8628;SDS011;4352;49.404;11.092;2023-01-09T14:49:27;4.07;;;2.20;;
8628;SDS011;4352;49.404;11.092;2023-01-09T14:51:57;6.20;;;2.87;;
8628;SDS011;4352;49.404;11.092;2023-01-09T14:54:27;17.70;;;7.93;;
8628;SDS011;4352;49.404;11.092;2023-01-09T14:56:55;8.73;;;4.10;;
8628;SDS011;4352;49.404;11.092;2023-01-09T14:59:22;4.57;;;2.43;;
8628;SDS011;4352;49.404;11.092;2023-01-09T15:01:49;6.10;;;2.60;;
8628;SDS011;4352;49.404;11.092;2023-01-09T15:04:24;8.00;;;3.43;;
8628;SDS011;4352;49.404;11.092;2023-01-09T15:06:55;13.07;;;4.20;;
8628;SDS011;4352;49.404;11.092;2023-01-09T15:09:23;2.63;;;1.50;;
8628;SDS011;4352;49.404;11.092;2023-01-09T15:11:51;8.67;;;3.30;;
8628;SDS011;4352;49.404;11.092;2023-01-09T15:14:23;4.57;;;2.47;;
8628;SDS011;4352;49.404;11.092;2023-01-09T15:16:51;5.20;;;2.37;;